Terminal Aerodrome Forecast
Issued by NWS

Current Version | Previous Version | Text Only | Print | Product List | Glossary On
Versions: 1 2 3 4 5 6 7 8 9 10 11 12 13 14 15 16 17 18 19 20 21 22 23 24 25 26 27 28 29 30 31 32 33 34 35 36 37 38 39 40 41
000
FTUS44 KHGX 180524
TAFUTS
TAF
KUTS 180524Z 1806/1906 18005KT P6SM VCSH FEW008 SCT100 BKN250
      TEMPO 1806/1808 -RA BKN006 BKN250
     FM180900 VRB04KT P6SM VCTS SCT006 SCT015CB BKN250
      TEMPO 1809/1813 VRB15KT 2SM +TSRA SCT006 BKN015CB
     FM181300 12006KT P6SM VCTS BKN025CB BKN250
     FM182100 12005KT P6SM VCSH SCT030 BKN250=

USA.gov is the U.S. government's official web portal to all federal, state and local government web resources and services.